sensor_id;sensor_type;location;lat;lon;timestamp;pressure;altitude;pressure_sealevel;temperature;humidity
79242;BME280;68670;48.720;9.118;2023-06-14T00:01:57;96349.25;;;15.00;45.46
79242;BME280;68670;48.720;9.118;2023-06-14T00:04:22;96348.91;;;15.17;44.81
79242;BME280;68670;48.720;9.118;2023-06-14T00:06:52;96360.91;;;14.92;44.24
79242;BME280;68670;48.720;9.118;2023-06-14T00:09:18;96356.28;;;14.77;44.60
79242;BME280;68670;48.720;9.118;2023-06-14T00:11:44;96362.34;;;14.74;45.15
79242;BME280;68670;48.720;9.118;2023-06-14T00:14:09;96343.38;;;14.63;45.65
79242;BME280;68670;48.720;9.118;2023-06-14T00:16:35;96345.91;;;14.59;45.49
79242;BME280;68670;48.720;9.118;2023-06-14T00:19:01;96349.47;;;14.60;46.04
79242;BME280;68670;48.720;9.118;2023-06-14T00:21:30;96352.44;;;14.73;46.84
79242;BME280;68670;48.720;9.118;2023-06-14T00:23:58;96349.59;;;14.94;47.43
79242;BME280;68670;48.720;9.118;2023-06-14T00:26:26;96348.59;;;14.69;48.00
79242;BME280;68670;48.720;9.118;2023-06-14T00:28:52;96350.88;;;14.57;47.24
79242;BME280;68670;48.720;9.118;2023-06-14T00:31:18;96341.00;;;14.41;47.04
79242;BME280;68670;48.720;9.118;2023-06-14T00:33:43;96347.03;;;14.38;50.31
79242;BME280;68670;48.720;9.118;2023-06-14T00:36:11;96344.28;;;14.33;49.84
79242;BME280;68670;48.720;9.118;2023-06-14T00:38:37;96346.28;;;14.17;48.86
79242;BME280;68670;48.720;9.118;2023-06-14T00:41:02;96348.75;;;14.19;47.62
79242;BME280;68670;48.720;9.118;2023-06-14T00:43:27;96344.34;;;14.12;47.79
79242;BME280;68670;48.720;9.118;2023-06-14T00:45:55;96342.44;;;14.03;48.71
79242;BME280;68670;48.720;9.118;2023-06-14T00:48:20;96337.47;;;14.15;47.97
79242;BME280;68670;48.720;9.118;2023-06-14T00:50:50;96340.44;;;14.34;47.45
79242;BME280;68670;48.720;9.118;2023-06-14T00:53:16;96343.25;;;14.19;47.89
79242;BME280;68670;48.720;9.118;2023-06-14T00:55:43;96337.75;;;14.13;47.72
79242;BME280;68670;48.720;9.118;2023-06-14T00:58:09;96341.59;;;14.18;47.29
79242;BME280;68670;48.720;9.118;2023-06-14T01:00:35;96344.34;;;14.23;47.44
79242;BME280;68670;48.720;9.118;2023-06-14T01:03:01;96340.50;;;14.13;47.86
79242;BME280;68670;48.720;9.118;2023-06-14T01:05:26;96340.78;;;14.12;47.93
79242;BME280;68670;48.720;9.118;2023-06-14T01:11:04;96334.44;;;14.11;48.23
79242;BME280;68670;48.720;9.118;2023-06-14T01:13:42;96341.03;;;14.21;48.18
79242;BME280;68670;48.720;9.118;2023-06-14T01:16:08;96336.63;;;14.20;48.05
79242;BME280;68670;48.720;9.118;2023-06-14T01:18:34;96346.00;;;14.19;48.92
79242;BME280;68670;48.720;9.118;2023-06-14T01:21:00;96347.66;;;14.04;48.93
79242;BME280;68670;48.720;9.118;2023-06-14T01:23:31;96340.56;;;13.83;49.79
79242;BME280;68670;48.720;9.118;2023-06-14T01:26:00;96344.97;;;13.74;49.54
79242;BME280;68670;48.720;9.118;2023-06-14T01:28:28;96352.69;;;13.62;49.59
79242;BME280;68670;48.720;9.118;2023-06-14T01:30:59;96352.66;;;13.87;51.09
79242;BME280;68670;48.720;9.118;2023-06-14T01:33:28;96348.00;;;13.88;51.47
79242;BME280;68670;48.720;9.118;2023-06-14T01:35:54;96349.94;;;13.62;54.20
79242;BME280;68670;48.720;9.118;2023-06-14T01:38:25;96358.19;;;13.47;51.89
79242;BME280;68670;48.720;9.118;2023-06-14T01:40:51;96354.88;;;13.44;50.33
79242;BME280;68670;48.720;9.118;2023-06-14T01:43:20;96344.69;;;13.65;49.34
79242;BME280;68670;48.720;9.118;2023-06-14T01:45:47;96349.91;;;13.77;49.19
79242;BME280;68670;48.720;9.118;2023-06-14T01:48:16;96350.75;;;13.72;49.62
79242;BME280;68670;48.720;9.118;2023-06-14T01:50:42;96343.31;;;13.68;49.78
79242;BME280;68670;48.720;9.118;2023-06-14T01:53:08;96345.53;;;13.61;49.03
79242;BME280;68670;48.720;9.118;2023-06-14T01:55:34;96348.56;;;13.64;48.85
79242;BME280;68670;48.720;9.118;2023-06-14T01:58:03;96346.91;;;13.53;48.97
79242;BME280;68670;48.720;9.118;2023-06-14T02:00:28;96354.88;;;13.44;49.63
79242;BME280;68670;48.720;9.118;2023-06-14T02:02:56;96353.25;;;13.54;49.46
79242;BME280;68670;48.720;9.118;2023-06-14T02:05:24;96345.53;;;13.56;49.54
79242;BME280;68670;48.720;9.118;2023-06-14T02:07:49;96353.50;;;13.52;49.37
79242;BME280;68670;48.720;9.118;2023-06-14T02:10:15;96346.63;;;13.50;52.44
79242;BME280;68670;48.720;9.118;2023-06-14T02:12:42;96358.72;;;13.38;51.26
79242;BME280;68670;48.720;9.118;2023-06-14T02:15:08;96361.50;;;13.28;50.43
79242;BME280;68670;48.720;9.118;2023-06-14T02:17:34;96357.06;;;13.22;49.51
79242;BME280;68670;48.720;9.118;2023-06-14T02:19:59;96358.97;;;13.17;50.53
79242;BME280;68670;48.720;9.118;2023-06-14T02:22:25;96352.06;;;13.09;50.32
79242;BME280;68670;48.720;9.118;2023-06-14T02:24:51;96354.81;;;12.99;50.58
79242;BME280;68670;48.720;9.118;2023-06-14T02:27:16;96354.25;;;13.07;51.96
79242;BME280;68670;48.720;9.118;2023-06-14T02:29:44;96355.88;;;13.03;51.28
79242;BME280;68670;48.720;9.118;2023-06-14T02:32:10;96351.50;;;13.02;51.04
79242;BME280;68670;48.720;9.118;2023-06-14T02:34:37;96355.38;;;13.11;53.42
79242;BME280;68670;48.720;9.118;2023-06-14T02:37:08;96361.97;;;13.10;55.23
79242;BME280;68670;48.720;9.118;2023-06-14T02:39:34;96359.19;;;13.00;53.26
79242;BME280;68670;48.720;9.118;2023-06-14T02:42:00;96356.41;;;12.85;51.84
79242;BME280;68670;48.720;9.118;2023-06-14T02:44:26;96355.81;;;12.72;51.95
79242;BME280;68670;48.720;9.118;2023-06-14T02:46:55;96349.25;;;12.84;51.59
79242;BME280;68670;48.720;9.118;2023-06-14T02:49:23;96354.19;;;12.76;51.79
79242;BME280;68670;48.720;9.118;2023-06-14T02:51:48;96352.53;;;12.81;53.88
79242;BME280;68670;48.720;9.118;2023-06-14T02:54:15;96352.50;;;12.70;54.23
79242;BME280;68670;48.720;9.118;2023-06-14T02:56:43;96349.50;;;12.77;55.91
79242;BME280;68670;48.720;9.118;2023-06-14T02:59:13;96358.81;;;12.61;53.06
79242;BME280;68670;48.720;9.118;2023-06-14T03:01:39;96359.63;;;12.61;55.24
79242;BME280;68670;48.720;9.118;2023-06-14T03:04:09;96355.84;;;12.77;55.91
79242;BME280;68670;48.720;9.118;2023-06-14T03:06:36;96354.19;;;12.76;53.86
79242;BME280;68670;48.720;9.118;2023-06-14T03:09:03;96359.69;;;12.82;55.24
79242;BME280;68670;48.720;9.118;2023-06-14T03:11:35;96358.28;;;12.64;52.88
79242;BME280;68670;48.720;9.118;2023-06-14T03:14:00;96356.34;;;12.69;55.04
79242;BME280;68670;48.720;9.118;2023-06-14T03:16:28;96361.56;;;12.61;54.18
79242;BME280;68670;48.720;9.118;2023-06-14T03:18:55;96362.31;;;12.46;53.94
79242;BME280;68670;48.720;9.118;2023-06-14T03:21:20;96360.69;;;12.50;54.07
79242;BME280;68670;48.720;9.118;2023-06-14T03:23:47;96363.97;;;12.52;55.66
79242;BME280;68670;48.720;9.118;2023-06-14T03:26:13;96363.41;;;12.45;53.26
79242;BME280;68670;48.720;9.118;2023-06-14T03:28:39;96377.66;;;12.42;53.56
79242;BME280;68670;48.720;9.118;2023-06-14T03:31:04;96367.78;;;12.41;53.13
79242;BME280;68670;48.720;9.118;2023-06-14T03:33:30;96376.66;;;12.58;52.08
79242;BME280;68670;48.720;9.118;2023-06-14T03:35:57;96372.88;;;12.79;52.11
79242;BME280;68670;48.720;9.118;2023-06-14T03:38:23;96380.56;;;12.77;51.88
79242;BME280;68670;48.720;9.118;2023-06-14T03:40:50;96379.47;;;12.78;51.73
79242;BME280;68670;48.720;9.118;2023-06-14T03:43:16;96370.13;;;12.79;51.72
79242;BME280;68670;48.720;9.118;2023-06-14T03:45:41;96385.47;;;12.65;52.03
79242;BME280;68670;48.720;9.118;2023-06-14T03:48:06;96391.22;;;12.59;52.29
79242;BME280;68670;48.720;9.118;2023-06-14T03:50:34;96389.22;;;12.44;52.96
79242;BME280;68670;48.720;9.118;2023-06-14T03:52:59;96389.22;;;12.44;53.86
79242;BME280;68670;48.720;9.118;2023-06-14T03:55:26;96391.13;;;12.43;54.39
79242;BME280;68670;48.720;9.118;2023-06-14T03:57:52;96390.38;;;12.58;58.27
79242;BME280;68670;48.720;9.118;2023-06-14T04:00:20;96397.56;;;12.69;54.82
79242;BME280;68670;48.720;9.118;2023-06-14T04:02:48;96395.63;;;12.60;58.07
79242;BME280;68670;48.720;9.118;2023-06-14T04:05:14;96398.06;;;12.56;55.83
79242;BME280;68670;48.720;9.118;2023-06-14T04:07:42;96396.38;;;12.50;54.58
79242;BME280;68670;48.720;9.118;2023-06-14T04:10:11;96410.72;;;12.57;53.96
79242;BME280;68670;48.720;9.118;2023-06-14T04:12:36;96412.38;;;12.58;54.51
79242;BME280;68670;48.720;9.118;2023-06-14T04:15:01;96416.47;;;12.56;54.10
79242;BME280;68670;48.720;9.118;2023-06-14T04:17:27;96417.88;;;12.58;54.55
79242;BME280;68670;48.720;9.118;2023-06-14T04:19:53;96424.47;;;12.62;55.59
79242;BME280;68670;48.720;9.118;2023-06-14T04:22:18;96418.72;;;12.64;55.12
79242;BME280;68670;48.720;9.118;2023-06-14T04:24:44;96417.13;;;12.78;54.70
79242;BME280;68670;48.720;9.118;2023-06-14T04:27:10;96422.91;;;12.82;54.33
79242;BME280;68670;48.720;9.118;2023-06-14T04:29:35;96414.69;;;12.87;54.91
79242;BME280;68670;48.720;9.118;2023-06-14T04:32:03;96422.13;;;12.91;55.72
79242;BME280;68670;48.720;9.118;2023-06-14T04:34:32;96422.41;;;12.95;57.54
79242;BME280;68670;48.720;9.118;2023-06-14T04:37:00;96427.97;;;13.15;53.16
79242;BME280;68670;48.720;9.118;2023-06-14T04:39:28;96424.19;;;13.26;55.99
79242;BME280;68670;48.720;9.118;2023-06-14T04:41:54;96418.66;;;13.21;56.38
79242;BME280;68670;48.720;9.118;2023-06-14T04:44:23;96423.06;;;13.22;56.26
79242;BME280;68670;48.720;9.118;2023-06-14T04:46:57;96417.56;;;13.32;55.04
79242;BME280;68670;48.720;9.118;2023-06-14T04:49:24;96421.47;;;13.57;51.57
79242;BME280;68670;48.720;9.118;2023-06-14T04:51:49;96431.69;;;13.61;53.74
79242;BME280;68670;48.720;9.118;2023-06-14T04:54:23;96428.63;;;13.68;53.08
79242;BME280;68670;48.720;9.118;2023-06-14T04:56:50;96430.56;;;13.77;51.94
79242;BME280;68670;48.720;9.118;2023-06-14T04:59:20;96434.16;;;13.93;50.89
79242;BME280;68670;48.720;9.118;2023-06-14T05:01:48;96423.41;;;14.07;49.88
79242;BME280;68670;48.720;9.118;2023-06-14T05:04:17;96431.94;;;14.16;49.80
79242;BME280;68670;48.720;9.118;2023-06-14T05:06:43;96431.94;;;14.26;51.36
79242;BME280;68670;48.720;9.118;2023-06-14T05:09:15;96441.28;;;14.25;54.41
79242;BME280;68670;48.720;9.118;2023-06-14T05:11:42;96440.16;;;14.31;53.53
79242;BME280;68670;48.720;9.118;2023-06-14T05:14:10;96441.81;;;14.32;52.39
79242;BME280;68670;48.720;9.118;2023-06-14T05:16:36;96446.25;;;14.43;52.02
79242;BME280;68670;48.720;9.118;2023-06-14T05:19:04;96451.75;;;14.58;47.68
79242;BME280;68670;48.720;9.118;2023-06-14T05:21:32;96449.47;;;14.70;48.18
79242;BME280;68670;48.720;9.118;2023-06-14T05:23:59;96453.59;;;14.83;46.04
79242;BME280;68670;48.720;9.118;2023-06-14T05:26:25;96457.72;;;14.91;46.12
79242;BME280;68670;48.720;9.118;2023-06-14T05:28:57;96454.63;;;14.97;46.10
79242;BME280;68670;48.720;9.118;2023-06-14T05:31:24;96457.59;;;15.11;46.34
79242;BME280;68670;48.720;9.118;2023-06-14T05:33:51;96454.03;;;15.10;48.21
79242;BME280;68670;48.720;9.118;2023-06-14T05:36:19;96453.75;;;15.07;47.29
79242;BME280;68670;48.720;9.118;2023-06-14T05:38:46;96458.41;;;15.17;47.98
79242;BME280;68670;48.720;9.118;2023-06-14T05:41:11;96458.69;;;15.20;46.44
79242;BME280;68670;48.720;9.118;2023-06-14T05:43:37;96460.00;;;15.28;46.76
79242;BME280;68670;48.720;9.118;2023-06-14T05:46:05;96459.19;;;15.27;47.67
79242;BME280;68670;48.720;9.118;2023-06-14T05:48:37;96460.31;;;15.26;46.64
79242;BME280;68670;48.720;9.118;2023-06-14T05:51:03;96466.03;;;15.35;47.01
79242;BME280;68670;48.720;9.118;2023-06-14T05:53:28;96463.00;;;15.36;47.05
79242;BME280;68670;48.720;9.118;2023-06-14T05:55:56;96463.00;;;15.36;46.91
79242;BME280;68670;48.720;9.118;2023-06-14T05:58:21;96459.66;;;15.44;46.04
79242;BME280;68670;48.720;9.118;2023-06-14T06:00:47;96466.78;;;15.56;45.98
79242;BME280;68670;48.720;9.118;2023-06-14T06:03:15;96462.34;;;15.60;46.26
79242;BME280;68670;48.720;9.118;2023-06-14T06:05:40;96468.38;;;15.67;45.26
79242;BME280;68670;48.720;9.118;2023-06-14T06:08:05;96457.84;;;15.74;44.90
79242;BME280;68670;48.720;9.118;2023-06-14T06:10:31;96464.41;;;15.83;44.68
79242;BME280;68670;48.720;9.118;2023-06-14T06:12:56;96466.84;;;15.90;44.37
79242;BME280;68670;48.720;9.118;2023-06-14T06:15:24;96461.50;;;15.98;44.76
79242;BME280;68670;48.720;9.118;2023-06-14T06:17:50;96464.78;;;16.05;44.09
79242;BME280;68670;48.720;9.118;2023-06-14T06:20:16;96456.75;;;16.09;45.46
79242;BME280;68670;48.720;9.118;2023-06-14T06:22:42;96461.66;;;16.17;44.27
79242;BME280;68670;48.720;9.118;2023-06-14T06:25:10;96471.56;;;16.23;43.80
79242;BME280;68670;48.720;9.118;2023-06-14T06:27:39;96467.88;;;16.33;43.70
79242;BME280;68670;48.720;9.118;2023-06-14T06:30:06;96466.50;;;16.30;41.60
79242;BME280;68670;48.720;9.118;2023-06-14T06:32:31;96471.69;;;16.37;41.56
79242;BME280;68670;48.720;9.118;2023-06-14T06:34:57;96468.06;;;16.41;42.93
79242;BME280;68670;48.720;9.118;2023-06-14T06:37:24;96471.63;;;16.47;42.85
79242;BME280;68670;48.720;9.118;2023-06-14T06:39:50;96475.97;;;16.53;43.85
79242;BME280;68670;48.720;9.118;2023-06-14T06:42:15;96474.22;;;16.62;43.98
79242;BME280;68670;48.720;9.118;2023-06-14T06:44:40;96478.38;;;16.65;43.39
79242;BME280;68670;48.720;9.118;2023-06-14T06:47:06;96480.25;;;16.69;43.51
79242;BME280;68670;48.720;9.118;2023-06-14T06:49:31;96481.31;;;16.73;43.19
79242;BME280;68670;48.720;9.118;2023-06-14T06:52:01;96490.16;;;16.75;42.89
79242;BME280;68670;48.720;9.118;2023-06-14T06:54:29;96491.09;;;16.90;43.03
79242;BME280;68670;48.720;9.118;2023-06-14T06:56:57;96494.88;;;16.99;42.56
79242;BME280;68670;48.720;9.118;2023-06-14T06:59:25;96490.34;;;17.08;43.47
79242;BME280;68670;48.720;9.118;2023-06-14T07:01:51;96487.47;;;17.18;44.35
79242;BME280;68670;48.720;9.118;2023-06-14T07:04:16;96505.59;;;17.29;41.98
79242;BME280;68670;48.720;9.118;2023-06-14T07:06:42;96497.81;;;17.31;41.57
79242;BME280;68670;48.720;9.118;2023-06-14T07:09:07;96509.66;;;17.37;40.24
79242;BME280;68670;48.720;9.118;2023-06-14T07:11:37;96509.88;;;17.40;40.55
79242;BME280;68670;48.720;9.118;2023-06-14T07:14:02;96510.41;;;17.42;41.09
79242;BME280;68670;48.720;9.118;2023-06-14T07:16:27;96514.84;;;17.43;40.52
79242;BME280;68670;48.720;9.118;2023-06-14T07:18:53;96514.78;;;17.49;40.15
79242;BME280;68670;48.720;9.118;2023-06-14T07:21:20;96513.06;;;17.53;39.50
79242;BME280;68670;48.720;9.118;2023-06-14T07:23:46;96521.00;;;17.59;40.07
79242;BME280;68670;48.720;9.118;2023-06-14T07:26:13;96522.34;;;17.62;39.98
79242;BME280;68670;48.720;9.118;2023-06-14T07:28:39;96531.16;;;17.69;40.26
79242;BME280;68670;48.720;9.118;2023-06-14T07:31:04;96529.97;;;17.75;39.92
79242;BME280;68670;48.720;9.118;2023-06-14T07:33:32;96523.25;;;17.81;39.68
79242;BME280;68670;48.720;9.118;2023-06-14T07:35:57;96533.72;;;17.84;40.43
79242;BME280;68670;48.720;9.118;2023-06-14T07:38:22;96528.63;;;17.91;40.32
79242;BME280;68670;48.720;9.118;2023-06-14T07:40:48;96532.75;;;17.94;39.78
79242;BME280;68670;48.720;9.118;2023-06-14T07:43:13;96530.78;;;17.94;40.15
79242;BME280;68670;48.720;9.118;2023-06-14T07:45:38;96538.38;;;18.07;41.51
79242;BME280;68670;48.720;9.118;2023-06-14T07:48:04;96546.44;;;18.23;41.23
79242;BME280;68670;48.720;9.118;2023-06-14T07:50:29;96535.56;;;18.26;40.40
79242;BME280;68670;48.720;9.118;2023-06-14T07:52:57;96540.16;;;18.36;42.16
79242;BME280;68670;48.720;9.118;2023-06-14T07:55:23;96539.41;;;18.49;42.55
79242;BME280;68670;48.720;9.118;2023-06-14T07:57:52;96538.34;;;18.64;41.75
79242;BME280;68670;48.720;9.118;2023-06-14T08:00:19;96533.31;;;18.66;39.00
79242;BME280;68670;48.720;9.118;2023-06-14T08:02:47;96527.19;;;18.83;41.62
79242;BME280;68670;48.720;9.118;2023-06-14T08:05:12;96539.75;;;18.94;40.20
79242;BME280;68670;48.720;9.118;2023-06-14T08:07:39;96531.97;;;19.09;40.07
79242;BME280;68670;48.720;9.118;2023-06-14T08:10:05;96532.38;;;19.03;39.37
79242;BME280;68670;48.720;9.118;2023-06-14T08:12:31;96538.53;;;19.00;39.42
79242;BME280;68670;48.720;9.118;2023-06-14T08:14:56;96540.59;;;19.08;39.29
79242;BME280;68670;48.720;9.118;2023-06-14T08:17:22;96527.63;;;19.17;39.60
79242;BME280;68670;48.720;9.118;2023-06-14T08:19:49;96529.09;;;19.28;39.32
79242;BME280;68670;48.720;9.118;2023-06-14T08:22:15;96538.16;;;19.48;39.51
79242;BME280;68670;48.720;9.118;2023-06-14T08:24:43;96540.63;;;19.35;37.13
79242;BME280;68670;48.720;9.118;2023-06-14T08:27:09;96545.75;;;19.28;38.25
79242;BME280;68670;48.720;9.118;2023-06-14T08:29:34;96541.97;;;19.38;39.07
79242;BME280;68670;48.720;9.118;2023-06-14T08:32:00;96539.59;;;19.45;38.50
79242;BME280;68670;48.720;9.118;2023-06-14T08:34:25;96543.53;;;19.58;38.09
79242;BME280;68670;48.720;9.118;2023-06-14T08:36:53;96549.91;;;19.72;38.24
79242;BME280;68670;48.720;9.118;2023-06-14T08:39:21;96548.69;;;19.78;38.10
79242;BME280;68670;48.720;9.118;2023-06-14T08:41:47;96552.44;;;20.09;38.09
79242;BME280;68670;48.720;9.118;2023-06-14T08:44:18;96542.28;;;20.63;37.16
79242;BME280;68670;48.720;9.118;2023-06-14T08:46:47;96546.38;;;20.66;36.29
79242;BME280;68670;48.720;9.118;2023-06-14T08:49:16;96557.75;;;21.00;37.62
79242;BME280;68670;48.720;9.118;2023-06-14T08:51:43;96558.81;;;21.13;36.30
79242;BME280;68670;48.720;9.118;2023-06-14T08:54:11;96556.31;;;21.03;34.71
79242;BME280;68670;48.720;9.118;2023-06-14T08:56:40;96556.78;;;21.27;35.83
79242;BME280;68670;48.720;9.118;2023-06-14T08:59:07;96553.50;;;21.25;35.62
79242;BME280;68670;48.720;9.118;2023-06-14T09:01:36;96557.94;;;21.66;36.41
79242;BME280;68670;48.720;9.118;2023-06-14T09:04:02;96562.38;;;22.06;36.12
79242;BME280;68670;48.720;9.118;2023-06-14T09:08:55;96552.84;;;22.07;36.04
79242;BME280;68670;48.720;9.118;2023-06-14T09:11:24;96550.81;;;21.99;35.12
79242;BME280;68670;48.720;9.118;2023-06-14T09:13:51;96550.47;;;21.92;35.06
79242;BME280;68670;48.720;9.118;2023-06-14T09:16:16;96554.75;;;21.98;35.07
79242;BME280;68670;48.720;9.118;2023-06-14T09:18:44;96558.69;;;21.97;35.50
79242;BME280;68670;48.720;9.118;2023-06-14T09:21:11;96559.34;;;21.94;35.75
79242;BME280;68670;48.720;9.118;2023-06-14T09:23:37;96560.44;;;22.50;36.66
79242;BME280;68670;48.720;9.118;2023-06-14T09:26:11;96566.19;;;22.71;36.87
79242;BME280;68670;48.720;9.118;2023-06-14T09:28:46;96562.91;;;22.60;33.64
79242;BME280;68670;48.720;9.118;2023-06-14T09:31:13;96556.13;;;23.13;34.83
79242;BME280;68670;48.720;9.118;2023-06-14T09:33:41;96553.84;;;23.70;35.10
79242;BME280;68670;48.720;9.118;2023-06-14T09:36:12;96546.03;;;23.85;33.55
79242;BME280;68670;48.720;9.118;2023-06-14T09:38:40;96554.88;;;23.95;31.84
79242;BME280;68670;48.720;9.118;2023-06-14T09:41:06;96561.03;;;23.80;31.46
79242;BME280;68670;48.720;9.118;2023-06-14T09:43:32;96549.81;;;24.09;31.95
79242;BME280;68670;48.720;9.118;2023-06-14T09:46:00;96561.66;;;24.44;30.00
79242;BME280;68670;48.720;9.118;2023-06-14T09:48:28;96552.69;;;24.30;29.37
79242;BME280;68670;48.720;9.118;2023-06-14T09:50:57;96558.81;;;23.94;29.87
79242;BME280;68670;48.720;9.118;2023-06-14T09:53:25;96553.91;;;23.91;30.74
79242;BME280;68670;48.720;9.118;2023-06-14T09:55:52;96559.97;;;24.23;30.90
79242;BME280;68670;48.720;9.118;2023-06-14T09:58:19;96553.97;;;23.74;31.01
79242;BME280;68670;48.720;9.118;2023-06-14T10:00:47;96553.28;;;23.77;31.43
79242;BME280;68670;48.720;9.118;2023-06-14T10:03:14;96542.19;;;23.98;30.79
79242;BME280;68670;48.720;9.118;2023-06-14T10:05:44;96548.13;;;24.47;28.90
79242;BME280;68670;48.720;9.118;2023-06-14T10:08:14;96546.03;;;24.64;29.46
79242;BME280;68670;48.720;9.118;2023-06-14T10:10:42;96539.22;;;24.24;28.71
79242;BME280;68670;48.720;9.118;2023-06-14T10:13:12;96548.50;;;23.86;28.68
79242;BME280;68670;48.720;9.118;2023-06-14T10:15:42;96543.84;;;24.20;28.44
79242;BME280;68670;48.720;9.118;2023-06-14T10:23:35;96536.22;;;25.82;27.79
79242;BME280;68670;48.720;9.118;2023-06-14T10:26:04;96539.59;;;25.99;25.58
79242;BME280;68670;48.720;9.118;2023-06-14T10:28:30;96542.16;;;25.68;25.06
79242;BME280;68670;48.720;9.118;2023-06-14T10:31:08;96538.91;;;25.90;25.71
79242;BME280;68670;48.720;9.118;2023-06-14T10:33:50;96533.97;;;26.24;24.99
79242;BME280;68670;48.720;9.118;2023-06-14T10:36:29;96539.47;;;26.85;24.43
79242;BME280;68670;48.720;9.118;2023-06-14T10:41:38;96534.47;;;27.06;24.06
79242;BME280;68670;48.720;9.118;2023-06-14T10:46:46;96543.13;;;26.08;24.61
79242;BME280;68670;48.720;9.118;2023-06-14T10:49:12;96541.50;;;25.83;24.65
79242;BME280;68670;48.720;9.118;2023-06-14T10:51:42;96538.63;;;26.56;26.36
79242;BME280;68670;48.720;9.118;2023-06-14T10:54:14;96540.47;;;26.64;26.09
79242;BME280;68670;48.720;9.118;2023-06-14T10:56:47;96536.19;;;26.83;24.40
79242;BME280;68670;48.720;9.118;2023-06-14T10:59:13;96544.81;;;27.02;26.27
79242;BME280;68670;48.720;9.118;2023-06-14T11:01:58;96542.66;;;27.55;25.57
79242;BME280;68670;48.720;9.118;2023-06-14T11:04:50;96533.34;;;27.82;23.06
79242;BME280;68670;48.720;9.118;2023-06-14T11:12:47;96517.59;;;29.21;23.03
79242;BME280;68670;48.720;9.118;2023-06-14T11:15:13;96526.19;;;28.51;21.81
79242;BME280;68670;48.720;9.118;2023-06-14T11:17:39;96525.31;;;28.31;22.09
79242;BME280;68670;48.720;9.118;2023-06-14T11:20:13;96518.91;;;28.50;22.69
79242;BME280;68670;48.720;9.118;2023-06-14T11:22:42;96529.84;;;28.36;22.64
79242;BME280;68670;48.720;9.118;2023-06-14T11:25:13;96528.53;;;28.49;22.41
79242;BME280;68670;48.720;9.118;2023-06-14T11:27:41;96531.78;;;29.05;22.35
79242;BME280;68670;48.720;9.118;2023-06-14T11:30:07;96524.00;;;29.83;20.99
79242;BME280;68670;48.720;9.118;2023-06-14T11:32:33;96517.88;;;29.55;20.53
79242;BME280;68670;48.720;9.118;2023-06-14T11:34:58;96529.28;;;28.65;21.96
79242;BME280;68670;48.720;9.118;2023-06-14T11:37:26;96529.53;;;27.90;23.16
79242;BME280;68670;48.720;9.118;2023-06-14T11:39:56;96532.63;;;26.98;23.94
79242;BME280;68670;48.720;9.118;2023-06-14T11:42:21;96534.34;;;26.22;24.50
79242;BME280;68670;48.720;9.118;2023-06-14T11:44:47;96537.50;;;26.08;25.47
79242;BME280;68670;48.720;9.118;2023-06-14T11:47:12;96534.09;;;26.15;24.19
79242;BME280;68670;48.720;9.118;2023-06-14T11:49:38;96539.44;;;26.97;23.78
79242;BME280;68670;48.720;9.118;2023-06-14T11:52:03;96531.47;;;27.42;23.33
79242;BME280;68670;48.720;9.118;2023-06-14T11:54:29;96524.53;;;27.84;22.65
79242;BME280;68670;48.720;9.118;2023-06-14T11:56:54;96523.72;;;28.85;22.74
79242;BME280;68670;48.720;9.118;2023-06-14T11:59:20;96526.56;;;29.46;19.67
79242;BME280;68670;48.720;9.118;2023-06-14T12:01:47;96522.75;;;29.81;19.76
79242;BME280;68670;48.720;9.118;2023-06-14T12:04:13;96523.84;;;30.22;21.46
79242;BME280;68670;48.720;9.118;2023-06-14T12:06:40;96525.44;;;30.72;19.77
79242;BME280;68670;48.720;9.118;2023-06-14T12:09:07;96527.94;;;30.77;19.64
79242;BME280;68670;48.720;9.118;2023-06-14T12:11:38;96524.19;;;30.69;17.95
79242;BME280;68670;48.720;9.118;2023-06-14T12:14:08;96522.06;;;30.93;17.67
79242;BME280;68670;48.720;9.118;2023-06-14T12:16:35;96509.94;;;30.62;18.04
79242;BME280;68670;48.720;9.118;2023-06-14T12:19:15;96512.94;;;30.73;20.38
79242;BME280;68670;48.720;9.118;2023-06-14T12:21:42;96512.72;;;30.89;18.47
79242;BME280;68670;48.720;9.118;2023-06-14T12:24:08;96515.66;;;31.29;18.38
79242;BME280;68670;48.720;9.118;2023-06-14T12:26:37;96516.91;;;30.16;19.30
79242;BME280;68670;48.720;9.118;2023-06-14T12:29:05;96509.41;;;29.35;19.87
79242;BME280;68670;48.720;9.118;2023-06-14T12:31:30;96511.00;;;28.94;20.40
79242;BME280;68670;48.720;9.118;2023-06-14T12:33:56;96503.03;;;27.91;22.02
79242;BME280;68670;48.720;9.118;2023-06-14T12:36:21;96522.13;;;26.55;22.33
79242;BME280;68670;48.720;9.118;2023-06-14T12:38:47;96515.38;;;26.19;23.00
79242;BME280;68670;48.720;9.118;2023-06-14T12:41:13;96514.59;;;25.82;24.05
79242;BME280;68670;48.720;9.118;2023-06-14T12:43:39;96524.19;;;25.81;24.14
79242;BME280;68670;48.720;9.118;2023-06-14T12:46:05;96516.47;;;25.66;23.51
79242;BME280;68670;48.720;9.118;2023-06-14T12:48:30;96515.13;;;26.76;23.21
79242;BME280;68670;48.720;9.118;2023-06-14T12:50:56;96519.63;;;27.81;22.08
79242;BME280;68670;48.720;9.118;2023-06-14T12:53:24;96518.34;;;28.80;21.65
79242;BME280;68670;48.720;9.118;2023-06-14T12:55:49;96501.56;;;28.67;21.04
79242;BME280;68670;48.720;9.118;2023-06-14T12:58:15;96508.56;;;29.12;21.14
79242;BME280;68670;48.720;9.118;2023-06-14T13:00:42;96505.50;;;29.86;21.41
79242;BME280;68670;48.720;9.118;2023-06-14T13:03:08;96517.81;;;30.50;21.15
79242;BME280;68670;48.720;9.118;2023-06-14T13:05:35;96514.97;;;29.74;20.90
79242;BME280;68670;48.720;9.118;2023-06-14T13:08:02;96514.56;;;29.11;21.45
79242;BME280;68670;48.720;9.118;2023-06-14T13:10:30;96515.78;;;28.04;22.25
79242;BME280;68670;48.720;9.118;2023-06-14T13:12:55;96523.44;;;27.72;22.16
79242;BME280;68670;48.720;9.118;2023-06-14T13:15:23;96523.38;;;27.25;23.13
79242;BME280;68670;48.720;9.118;2023-06-14T13:17:48;96523.78;;;26.84;23.27
79242;BME280;68670;48.720;9.118;2023-06-14T13:20:16;96522.28;;;26.74;23.29
79242;BME280;68670;48.720;9.118;2023-06-14T13:22:41;96527.44;;;26.07;23.29